Time;durP1;ratioP1;P1;durP2;ratioP2;P2;SDS_P1;SDS_P2;PMS_P1;PMS_P2;Temp;Humidity;BMP_temperature;BMP_pressure;BME280_temperature;BME280_humidity;BME280_pressure;Samples;Min_cycle;Max_cycle;Signal;HPM_P1;HPM_P2
2022/08/06 00:01:45;;;;;;;4.63;0.73;;;14.60;78.00;;;;;;5073642;28;20112;-74
2022/08/06 00:04:11;;;;;;;5.07;0.70;;;14.60;78.20;;;;;;5054715;28;20035;-74
2022/08/06 00:06:36;;;;;;;5.78;0.63;;;14.50;78.30;;;;;;5055602;28;20056;-74
2022/08/06 00:09:02;;;;;;;6.75;0.98;;;14.50;78.40;;;;;;5073555;28;20086;-74
2022/08/06 00:11:28;;;;;;;4.53;0.80;;;14.50;78.70;;;;;;5073473;28;20481;-74
2022/08/06 00:13:53;;;;;;;5.55;1.20;;;14.50;78.80;;;;;;5073549;28;20427;-74
2022/08/06 00:16:19;;;;;;;4.40;0.75;;;14.50;78.90;;;;;;5073785;28;20028;-74
2022/08/06 00:18:44;;;;;;;4.47;0.98;;;14.40;79.00;;;;;;5073527;28;20032;-74
2022/08/06 00:21:10;;;;;;;5.53;1.20;;;14.40;79.10;;;;;;5073726;28;20449;-74
2022/08/06 00:23:36;;;;;;;4.80;0.80;;;14.40;79.30;;;;;;5055816;28;20036;-74
2022/08/06 00:26:02;;;;;;;5.75;1.40;;;14.30;79.70;;;;;;5073480;28;20033;-74
2022/08/06 00:28:27;;;;;;;6.68;1.00;;;14.30;79.60;;;;;;5073548;28;20036;-74
2022/08/06 00:30:53;;;;;;;3.10;0.80;;;14.30;80.00;;;;;;5055809;28;20504;-74
2022/08/06 00:33:19;;;;;;;5.35;1.48;;;14.30;80.20;;;;;;5055482;28;20414;-74
2022/08/06 00:35:44;;;;;;;8.77;1.45;;;14.20;80.50;;;;;;5073934;28;20025;-74
2022/08/06 00:38:10;;;;;;;8.02;1.77;;;14.20;80.50;;;;;;5073386;28;20032;-74
2022/08/06 00:40:36;;;;;;;8.55;1.60;;;14.20;80.60;;;;;;5055554;28;20024;-74
2022/08/06 00:43:03;;;;;;;8.70;1.30;;;14.20;80.80;;;;;;5073596;28;20094;-74
2022/08/06 00:45:31;;;;;;;5.65;1.17;;;14.10;81.00;;;;;;5073348;28;20057;-73
2022/08/06 00:47:56;;;;;;;7.07;1.73;;;14.10;81.10;;;;;;5055428;28;20111;-74
2022/08/06 00:50:22;;;;;;;5.65;1.20;;;14.10;81.40;;;;;;5055340;28;20060;-73
2022/08/06 00:52:47;;;;;;;6.85;1.50;;;14.00;81.70;;;;;;5055389;28;20033;-73
2022/08/06 00:55:13;;;;;;;4.47;1.08;;;14.00;81.80;;;;;;5055444;28;20376;-74
2022/08/06 00:57:39;;;;;;;3.97;0.75;;;14.00;81.90;;;;;;5073812;28;20021;-74
2022/08/06 01:00:06;;;;;;;8.13;1.10;;;13.90;82.20;;;;;;5073384;28;20493;-73
2022/08/06 01:02:32;;;;;;;5.78;1.30;;;13.90;82.20;;;;;;5073464;28;20025;-74
2022/08/06 01:04:58;;;;;;;4.68;1.20;;;13.90;82.50;;;;;;5073457;28;20067;-74
2022/08/06 01:07:23;;;;;;;5.95;1.00;;;13.90;82.70;;;;;;5072654;28;20079;-74
2022/08/06 01:09:49;;;;;;;5.60;0.77;;;13.90;82.90;;;;;;5055535;28;20036;-74
2022/08/06 01:12:16;;;;;;;4.38;0.90;;;13.90;83.10;;;;;;5054934;28;20469;-73
2022/08/06 01:14:42;;;;;;;5.88;1.13;;;13.90;83.20;;;;;;5073254;28;20128;-73
2022/08/06 01:17:31;;;;;;;5.82;1.27;;;13.90;83.20;;;;;;5075947;28;20497;-74
2022/08/06 01:20:08;;;;;;;5.18;0.90;;;13.80;83.20;;;;;;5044901;28;20120;-73
2022/08/06 01:22:48;;;;;;;7.75;0.98;;;13.80;83.50;;;;;;5077094;28;20096;-74
2022/08/06 01:25:31;;;;;;;3.78;0.95;;;13.80;83.40;;;;;;5078988;28;20083;-73
2022/08/06 01:28:07;;;;;;;4.82;0.80;;;13.80;83.50;;;;;;5080377;28;20070;-73
2022/08/06 01:30:39;;;;;;;6.38;0.82;;;13.80;83.60;;;;;;5080153;28;20021;-73
2022/08/06 01:33:11;;;;;;;4.43;0.73;;;13.70;84.30;;;;;;5079374;28;20024;-73
2022/08/06 01:35:40;;;;;;;6.70;1.05;;;13.70;83.60;;;;;;5077404;28;20400;-74
2022/08/06 01:38:10;;;;;;;5.68;0.68;;;13.70;83.70;;;;;;5076463;28;20021;-74
2022/08/06 01:40:38;;;;;;;5.15;1.08;;;13.60;84.40;;;;;;5076423;28;20512;-74
2022/08/06 01:43:08;;;;;;;11.10;1.85;;;13.60;83.90;;;;;;5076204;28;20377;-74
2022/08/06 01:45:35;;;;;;;5.78;0.63;;;13.60;84.20;;;;;;5076640;28;20024;-73
2022/08/06 01:48:04;;;;;;;7.13;1.20;;;13.60;84.50;;;;;;5058392;28;20032;-74
2022/08/06 01:50:38;;;;;;;8.63;0.82;;;13.60;84.40;;;;;;5076044;28;20112;-73
2022/08/06 01:53:06;;;;;;;9.77;0.80;;;13.60;84.50;;;;;;5076137;28;20020;-73
2022/08/06 01:55:38;;;;;;;5.43;0.82;;;13.60;84.70;;;;;;5058674;28;20107;-73
2022/08/06 01:58:05;;;;;;;6.55;1.10;;;13.60;84.70;;;;;;5058217;28;20021;-73
2022/08/06 02:00:33;;;;;;;3.33;0.77;;;13.60;84.70;;;;;;5075798;28;20029;-73
2022/08/06 02:03:03;;;;;;;5.78;1.20;;;13.60;84.80;;;;;;5076414;28;20147;-78
2022/08/06 02:05:29;;;;;;;5.53;0.85;;;13.60;84.90;;;;;;5075988;28;20384;-78
2022/08/06 02:07:58;;;;;;;5.00;0.98;;;13.50;84.90;;;;;;5057875;28;20053;-78
2022/08/06 02:10:24;;;;;;;8.27;1.30;;;13.50;84.90;;;;;;5075773;28;20051;-78
2022/08/06 02:12:50;;;;;;;3.60;0.80;;;13.50;85.10;;;;;;5075883;28;20380;-78
2022/08/06 02:15:26;;;;;;;6.10;0.63;;;13.50;85.10;;;;;;5076393;28;20086;-78
2022/08/06 02:17:56;;;;;;;5.95;0.85;;;13.50;85.20;;;;;;5076027;28;20108;-78
2022/08/06 02:20:44;;;;;;;4.00;0.73;;;13.50;85.30;;;;;;5075881;28;20024;-78
2022/08/06 02:23:16;;;;;;;5.50;0.80;;;13.50;85.50;;;;;;5074004;28;20058;-78
2022/08/06 02:25:43;;;;;;;7.70;0.90;;;13.50;85.60;;;;;;5066522;28;20052;-78
2022/08/06 02:28:10;;;;;;;5.53;0.65;;;13.50;85.60;;;;;;5053841;28;20037;-78
2022/08/06 02:30:40;;;;;;;12.57;1.75;;;13.50;85.80;;;;;;5062397;28;20033;-78
2022/08/06 02:33:07;;;;;;;4.22;0.88;;;13.40;85.90;;;;;;5055103;28;20104;-78
2022/08/06 02:35:37;;;;;;;5.63;0.95;;;13.40;85.80;;;;;;5085660;28;20029;-78
2022/08/06 02:38:10;;;;;;;9.27;1.15;;;13.40;86.00;;;;;;5056945;28;20028;-78
2022/08/06 02:40:40;;;;;;;5.70;0.90;;;13.40;86.20;;;;;;5075402;28;20028;-78
2022/08/06 02:43:15;;;;;;;6.78;0.70;;;13.40;86.30;;;;;;5075623;28;20036;-78
2022/08/06 02:45:57;;;;;;;6.53;1.20;;;13.40;86.50;;;;;;5057262;28;20052;-78
2022/08/06 02:48:56;;;;;;;2.92;0.70;;;13.40;86.60;;;;;;5057484;28;20029;-78
2022/08/06 02:51:38;;;;;;;4.55;0.77;;;13.40;86.70;;;;;;5067661;28;20040;-78
2022/08/06 02:54:56;;;;;;;4.07;1.00;;;13.40;86.70;;;;;;5057588;28;20035;-78
2022/08/06 02:57:27;;;;;;;1.73;0.50;;;13.30;86.80;;;;;;5033496;28;20366;-78
2022/08/06 02:59:56;;;;;;;4.72;0.70;;;13.30;86.80;;;;;;5033603;28;20076;-78
2022/08/06 03:02:25;;;;;;;6.28;0.88;;;13.30;87.00;;;;;;5059101;28;20033;-78
2022/08/06 03:04:53;;;;;;;6.32;0.80;;;13.30;87.20;;;;;;5075611;28;20051;-78
2022/08/06 03:07:20;;;;;;;4.38;0.75;;;13.30;87.20;;;;;;5057028;28;20060;-78
2022/08/06 03:09:48;;;;;;;5.28;0.60;;;13.30;87.40;;;;;;5075237;28;20029;-78
2022/08/06 03:12:15;;;;;;;6.57;0.90;;;13.30;87.50;;;;;;5074554;28;20028;-77
2022/08/06 03:14:43;;;;;;;7.38;1.00;;;13.20;87.60;;;;;;5075021;28;20471;-78
2022/08/06 03:17:12;;;;;;;6.35;0.90;;;13.20;87.90;;;;;;5056333;28;20469;-78
2022/08/06 03:19:40;;;;;;;7.22;0.85;;;13.20;88.00;;;;;;5056406;28;20052;-78
2022/08/06 03:22:08;;;;;;;5.70;1.10;;;13.20;88.10;;;;;;5074183;28;20033;-78
2022/08/06 03:24:36;;;;;;;4.10;0.88;;;13.20;88.20;;;;;;5056472;28;20024;-77
2022/08/06 03:27:03;;;;;;;3.75;0.85;;;13.20;88.40;;;;;;5074526;28;20056;-78
2022/08/06 03:29:30;;;;;;;5.68;0.90;;;13.20;88.40;;;;;;5074434;28;20123;-78
2022/08/06 03:31:56;;;;;;;5.13;1.25;;;13.20;88.60;;;;;;5056274;28;20067;-78
2022/08/06 03:34:23;;;;;;;3.47;0.80;;;13.20;88.70;;;;;;5056825;28;20028;-78
2022/08/06 03:36:49;;;;;;;5.28;0.90;;;13.20;88.90;;;;;;5074374;28;20028;-78
2022/08/06 03:39:16;;;;;;;5.68;0.90;;;13.10;89.00;;;;;;5056411;28;20116;-78
2022/08/06 03:41:43;;;;;;;4.75;1.45;;;13.10;89.00;;;;;;5073995;28;20059;-78
2022/08/06 03:44:09;;;;;;;5.97;0.98;;;13.10;89.10;;;;;;5074001;28;20032;-78
2022/08/06 03:46:46;;;;;;;8.25;1.25;;;13.10;89.30;;;;;;5056531;28;20054;-78
2022/08/06 03:49:22;;;;;;;4.68;0.90;;;13.10;89.50;;;;;;5056244;28;20116;-78
2022/08/06 03:51:51;;;;;;;3.70;0.73;;;13.00;89.50;;;;;;5074128;28;20034;-78
2022/08/06 03:54:21;;;;;;;5.85;0.98;;;13.00;89.60;;;;;;5073996;28;20027;-78
2022/08/06 03:56:48;;;;;;;7.35;1.20;;;13.00;90.10;;;;;;5073942;28;20029;-78
2022/08/06 03:59:14;;;;;;;5.38;1.10;;;13.00;90.00;;;;;;5056325;28;20020;-78
2022/08/06 04:01:44;;;;;;;4.93;1.30;;;13.00;90.00;;;;;;5055780;28;20020;-78
2022/08/06 04:04:11;;;;;;;6.20;1.55;;;12.90;90.10;;;;;;5074261;28;20032;-78
2022/08/06 04:06:37;;;;;;;6.28;1.40;;;12.90;90.20;;;;;;5073792;28;20076;-78
2022/08/06 04:09:05;;;;;;;4.95;1.15;;;12.90;90.20;;;;;;5055607;28;20060;-78
2022/08/06 04:11:32;;;;;;;7.40;1.17;;;12.90;90.30;;;;;;5073683;28;20043;-78
2022/08/06 04:13:59;;;;;;;7.75;2.17;;;12.90;90.40;;;;;;5055808;28;20021;-78
2022/08/06 04:16:26;;;;;;;6.07;1.27;;;12.90;90.50;;;;;;5073408;28;20393;-78
2022/08/06 04:18:55;;;;;;;2.78;1.10;;;12.90;90.60;;;;;;5073502;28;20046;-78
2022/08/06 04:21:23;;;;;;;5.43;1.23;;;12.90;90.70;;;;;;5073970;28;20064;-78
2022/08/06 04:23:49;;;;;;;8.20;1.75;;;12.90;90.70;;;;;;5073795;28;20036;-78
2022/08/06 04:26:19;;;;;;;8.38;1.60;;;12.90;90.80;;;;;;5073727;28;20523;-78
2022/08/06 04:28:48;;;;;;;4.05;1.23;;;12.90;90.90;;;;;;5073717;28;20559;-78
2022/08/06 04:31:14;;;;;;;10.00;2.20;;;12.90;90.90;;;;;;5056075;28;20049;-78
2022/08/06 04:33:41;;;;;;;4.95;1.40;;;12.90;90.90;;;;;;5055647;28;20078;-78
2022/08/06 04:36:08;;;;;;;5.40;1.10;;;12.90;91.00;;;;;;5073766;28;20430;-77
2022/08/06 04:38:34;;;;;;;3.42;1.15;;;12.90;91.00;;;;;;5056090;28;20380;-78
2022/08/06 04:41:01;;;;;;;5.28;1.48;;;12.90;91.00;;;;;;5074122;28;20020;-78
2022/08/06 04:43:27;;;;;;;5.03;1.38;;;12.90;91.00;;;;;;5073638;28;20049;-78
2022/08/06 04:45:53;;;;;;;6.82;1.65;;;12.90;91.10;;;;;;5073966;28;20028;-78
2022/08/06 04:48:19;;;;;;;7.07;1.38;;;12.90;91.20;;;;;;5073959;28;20472;-78
2022/08/06 04:50:45;;;;;;;3.47;1.45;;;12.90;91.20;;;;;;5073044;28;20098;-78
2022/08/06 04:53:16;;;;;;;5.60;2.10;;;12.90;91.20;;;;;;5092656;28;20484;-78
2022/08/06 04:55:43;;;;;;;4.75;1.67;;;12.90;91.30;;;;;;5076731;28;20052;-78
2022/08/06 04:58:10;;;;;;;6.13;1.92;;;12.90;91.30;;;;;;5057492;28;20028;-78
2022/08/06 05:00:41;;;;;;;5.55;1.40;;;12.90;91.70;;;;;;5056093;28;20036;-78
2022/08/06 05:03:07;;;;;;;4.65;2.00;;;12.90;91.50;;;;;;5074351;28;20059;-78
2022/08/06 05:05:50;;;;;;;5.93;1.60;;;13.00;91.60;;;;;;5074327;28;20056;-78
2022/08/06 05:08:18;;;;;;;3.22;1.35;;;13.00;91.70;;;;;;5072868;28;20500;-78
2022/08/06 05:11:09;;;;;;;6.32;1.75;;;13.00;91.70;;;;;;5069113;28;20061;-78
2022/08/06 05:13:38;;;;;;;5.97;1.73;;;12.90;91.70;;;;;;5054941;28;20480;-78
2022/08/06 05:16:07;;;;;;;3.33;1.77;;;13.10;91.80;;;;;;5061691;28;20021;-78
2022/08/06 05:18:45;;;;;;;4.18;1.75;;;13.00;91.80;;;;;;5074292;28;20613;-78
2022/08/06 05:21:14;;;;;;;5.68;1.63;;;13.00;91.80;;;;;;5065756;28;20025;-78
2022/08/06 05:23:49;;;;;;;6.88;1.85;;;13.00;91.80;;;;;;5063931;28;20059;-78
2022/08/06 05:26:16;;;;;;;5.97;1.75;;;13.00;91.80;;;;;;5056435;28;20025;-78
2022/08/06 05:28:42;;;;;;;7.35;2.17;;;12.90;91.80;;;;;;5058294;28;20024;-78
2022/08/06 05:31:09;;;;;;;4.43;1.75;;;12.90;91.80;;;;;;5065335;28;20025;-78
2022/08/06 05:33:37;;;;;;;5.63;1.73;;;12.90;91.80;;;;;;5063991;28;20059;-78
2022/08/06 05:36:05;;;;;;;5.03;2.03;;;13.00;91.90;;;;;;5068408;28;20050;-78
2022/08/06 05:38:36;;;;;;;5.50;2.20;;;12.90;91.90;;;;;;5059906;28;20100;-78
2022/08/06 05:41:10;;;;;;;4.78;1.60;;;13.00;91.90;;;;;;5059110;28;20025;-78
2022/08/06 05:43:37;;;;;;;10.68;2.63;;;12.90;92.00;;;;;;5056631;28;20037;-78
2022/08/06 05:46:09;;;;;;;7.72;1.80;;;13.00;92.10;;;;;;5054746;28;20036;-78
2022/08/06 05:48:40;;;;;;;7.63;2.13;;;13.00;92.10;;;;;;5056178;28;20036;-78
2022/08/06 05:51:11;;;;;;;5.80;1.77;;;13.10;92.40;;;;;;5038525;28;20025;-78
2022/08/06 05:53:51;;;;;;;5.93;1.98;;;13.10;92.20;;;;;;5056146;28;20032;-78
2022/08/06 05:56:27;;;;;;;5.20;1.67;;;13.20;92.20;;;;;;5056396;28;20021;-78
2022/08/06 05:58:59;;;;;;;2.80;1.35;;;13.20;92.20;;;;;;5055924;28;20071;-78
2022/08/06 06:01:26;;;;;;;5.97;1.90;;;13.30;92.20;;;;;;5056192;28;20021;-78
2022/08/06 06:03:53;;;;;;;5.20;1.67;;;13.30;92.20;;;;;;5054887;28;20148;-77
2022/08/06 06:06:21;;;;;;;3.42;1.13;;;13.40;92.20;;;;;;5065972;28;20056;-78
2022/08/06 06:08:46;;;;;;;7.55;1.42;;;13.40;92.20;;;;;;5075761;28;20052;-78
2022/08/06 06:11:14;;;;;;;5.90;1.10;;;13.50;92.20;;;;;;5075921;28;20086;-78
2022/08/06 06:13:41;;;;;;;3.00;1.02;;;13.60;92.20;;;;;;5076105;28;20102;-78
2022/08/06 06:16:18;;;;;;;3.17;0.90;;;13.60;92.10;;;;;;5076061;28;20020;-77
2022/08/06 06:18:55;;;;;;;3.72;0.88;;;13.70;92.10;;;;;;5075762;28;20104;-78
2022/08/06 06:21:43;;;;;;;4.25;1.00;;;13.70;92.10;;;;;;5075691;28;20028;-78
2022/08/06 06:25:03;;;;;;;3.35;0.90;;;13.80;92.00;;;;;;5038214;28;20144;-78
2022/08/06 06:27:46;;;;;;;5.88;0.98;;;13.90;92.00;;;;;;4965612;28;20520;-78
2022/08/06 06:30:33;;;;;;;7.40;1.00;;;14.00;91.90;;;;;;4976207;28;20022;-78
2022/08/06 06:33:20;;;;;;;4.43;1.23;;;14.00;91.90;;;;;;5032772;28;20485;-78
2022/08/06 06:35:54;;;;;;;3.58;0.90;;;14.10;91.90;;;;;;5077717;28;20032;-78
2022/08/06 06:38:50;;;;;;;3.22;0.98;;;14.20;91.90;;;;;;5094294;28;20040;-78
2022/08/06 06:41:21;;;;;;;1.27;0.52;;;14.20;91.90;;;;;;5089363;28;20021;-78
2022/08/06 06:44:08;;;;;;;3.08;0.90;;;14.30;92.00;;;;;;5083276;28;20621;-78
2022/08/06 06:46:46;;;;;;;3.75;0.70;;;14.40;91.90;;;;;;5082340;28;20038;-78
2022/08/06 06:49:20;;;;;;;3.70;0.70;;;14.50;91.90;;;;;;5078370;28;20075;-78
2022/08/06 06:51:58;;;;;;;3.72;0.93;;;14.60;91.90;;;;;;5075235;28;20078;-78
2022/08/06 06:54:36;;;;;;;4.20;0.70;;;14.70;91.90;;;;;;5083013;28;20019;-78
2022/08/06 06:57:04;;;;;;;4.18;0.80;;;14.70;91.90;;;;;;5088820;28;20489;-78
2022/08/06 06:59:34;;;;;;;3.92;0.88;;;14.80;91.90;;;;;;5057085;28;20392;-78
2022/08/06 07:02:02;;;;;;;2.38;0.45;;;14.90;92.00;;;;;;5075379;28;20020;-78
2022/08/06 07:04:29;;;;;;;2.33;0.45;;;15.00;91.90;;;;;;5074985;28;20082;-78
2022/08/06 07:06:57;;;;;;;2.53;0.40;;;15.10;91.90;;;;;;5074796;28;20056;-78
2022/08/06 07:09:25;;;;;;;4.10;0.28;;;15.20;92.00;;;;;;5074814;28;20384;-79
2022/08/06 07:11:53;;;;;;;3.97;0.40;;;15.30;91.60;;;;;;5074820;28;20051;-78
2022/08/06 07:14:21;;;;;;;3.05;0.30;;;15.40;91.30;;;;;;5074134;28;20538;-78
2022/08/06 07:16:50;;;;;;;2.13;0.40;;;15.40;91.10;;;;;;5074616;28;20120;-79
2022/08/06 07:19:17;;;;;;;6.13;0.60;;;15.50;90.90;;;;;;5056988;28;20501;-78
2022/08/06 07:21:45;;;;;;;1.92;0.30;;;15.60;90.70;;;;;;5074545;28;20028;-78
2022/08/06 07:24:15;;;;;;;4.22;0.55;;;15.70;90.60;;;;;;5074457;28;20378;-79
2022/08/06 07:26:43;;;;;;;3.22;0.40;;;15.80;90.40;;;;;;5056488;28;20115;-79
2022/08/06 07:29:11;;;;;;;2.15;0.40;;;15.80;90.50;;;;;;5074728;28;20104;-78
2022/08/06 07:31:38;;;;;;;1.20;0.20;;;15.90;90.10;;;;;;5074123;28;20613;-79
2022/08/06 07:34:04;;;;;;;1.63;0.32;;;16.00;90.00;;;;;;5072824;28;20119;-79
2022/08/06 07:36:38;;;;;;;3.38;0.40;;;16.10;89.70;;;;;;5086657;28;20476;-80
2022/08/06 07:39:11;;;;;;;2.50;0.32;;;16.20;89.10;;;;;;5094371;28;20024;-79
2022/08/06 07:41:37;;;;;;;2.47;0.30;;;16.20;88.80;;;;;;5073595;28;20032;-79
2022/08/06 07:44:06;;;;;;;2.83;0.40;;;16.30;87.90;;;;;;5061109;28;20023;-78
2022/08/06 07:46:39;;;;;;;3.33;0.40;;;16.40;86.70;;;;;;5094134;28;20024;-78
2022/08/06 07:49:07;;;;;;;2.45;0.30;;;16.50;86.50;;;;;;5080709;28;20017;-79
2022/08/06 07:51:36;;;;;;;1.92;0.25;;;16.50;86.20;;;;;;5054054;28;20520;-79
2022/08/06 07:54:05;;;;;;;2.13;0.38;;;16.60;85.30;;;;;;5053772;28;20688;-79
2022/08/06 07:56:31;;;;;;;3.83;0.40;;;16.60;85.00;;;;;;5052526;28;20025;-77
2022/08/06 07:58:58;;;;;;;2.72;0.40;;;16.60;84.80;;;;;;5053903;28;20025;-78
2022/08/06 08:01:25;;;;;;;1.58;0.30;;;16.70;84.70;;;;;;5069243;28;20102;-78
2022/08/06 08:06:37;;;;;;;1.52;0.20;;;16.80;84.80;;;;;;5053645;28;20056;-78
2022/08/06 08:09:12;;;;;;;3.40;0.25;;;16.80;83.80;;;;;;5076084;28;20029;-78
2022/08/06 08:11:41;;;;;;;1.95;0.30;;;16.90;83.40;;;;;;5068902;28;20032;-77
2022/08/06 08:14:09;;;;;;;1.25;0.20;;;17.00;82.90;;;;;;5073768;28;20024;-78
2022/08/06 08:16:36;;;;;;;3.75;0.32;;;17.00;82.90;;;;;;5073139;28;20074;-77
2022/08/06 08:19:02;;;;;;;2.13;0.30;;;17.10;82.20;;;;;;5073419;28;20115;-77
2022/08/06 08:21:29;;;;;;;5.50;0.35;;;17.20;81.50;;;;;;5055806;28;20512;-78
2022/08/06 08:23:56;;;;;;;3.33;0.20;;;17.20;81.30;;;;;;5073167;28;20074;-77
2022/08/06 08:26:22;;;;;;;1.10;0.17;;;17.30;80.60;;;;;;5072763;28;20085;-78
2022/08/06 08:28:48;;;;;;;5.90;0.40;;;17.40;80.50;;;;;;5073467;28;20098;-79
2022/08/06 08:31:13;;;;;;;2.10;0.40;;;17.50;79.90;;;;;;5055554;28;20029;-79
2022/08/06 08:33:40;;;;;;;1.95;0.20;;;17.60;79.60;;;;;;5055888;28;20036;-81
2022/08/06 08:36:06;;;;;;;3.80;0.30;;;17.80;79.30;;;;;;5073545;28;20107;-78
2022/08/06 08:38:33;;;;;;;2.67;0.40;;;17.80;78.40;;;;;;5080313;28;20103;-73
2022/08/06 08:41:18;;;;;;;1.33;0.25;;;17.90;77.80;;;;;;5054948;28;20433;-74
2022/08/06 08:43:50;;;;;;;0.63;0.20;;;17.90;77.20;;;;;;5055237;28;20480;-74
2022/08/06 08:46:17;;;;;;;3.63;0.40;;;18.10;76.90;;;;;;5057354;28;20024;-73
2022/08/06 08:48:43;;;;;;;1.58;0.30;;;18.10;75.90;;;;;;5042293;28;20384;-74
2022/08/06 08:51:12;;;;;;;1.95;0.28;;;18.20;75.60;;;;;;5059185;28;20033;-74
2022/08/06 08:53:43;;;;;;;3.25;0.40;;;18.30;75.20;;;;;;5073466;28;20024;-73
2022/08/06 08:56:11;;;;;;;2.17;0.20;;;18.30;74.20;;;;;;5080800;28;20021;-74
2022/08/06 08:58:40;;;;;;;2.95;0.30;;;18.30;74.00;;;;;;5066509;28;20419;-73
2022/08/06 09:01:08;;;;;;;0.95;0.60;;;18.40;73.50;;;;;;5076067;28;20036;-73
2022/08/06 09:03:39;;;;;;;1.95;0.30;;;18.40;73.20;;;;;;5065436;28;20430;-73
2022/08/06 09:06:06;;;;;;;2.55;0.40;;;18.40;73.20;;;;;;5065554;28;20411;-73
2022/08/06 09:08:32;;;;;;;3.58;0.30;;;18.60;72.80;;;;;;5035017;28;20056;-74
2022/08/06 09:10:59;;;;;;;1.02;0.20;;;18.70;72.40;;;;;;5053412;28;20041;-73
2022/08/06 09:13:26;;;;;;;1.15;0.20;;;18.80;71.60;;;;;;5049623;28;20476;-73
2022/08/06 09:15:52;;;;;;;1.45;0.30;;;18.90;70.40;;;;;;5072795;28;20025;-74
2022/08/06 09:18:20;;;;;;;2.05;0.30;;;19.00;69.60;;;;;;5072942;28;20029;-73
2022/08/06 09:20:45;;;;;;;1.10;0.20;;;19.10;68.80;;;;;;5075520;28;20016;-73
2022/08/06 09:23:12;;;;;;;2.50;0.20;;;19.20;68.50;;;;;;5077343;28;20472;-74
2022/08/06 09:25:43;;;;;;;2.58;0.40;;;19.30;68.70;;;;;;5072676;28;20037;-74
2022/08/06 09:28:11;;;;;;;2.20;0.40;;;19.50;67.80;;;;;;5054818;28;20427;-74
2022/08/06 09:30:38;;;;;;;2.90;0.55;;;19.60;67.20;;;;;;5073149;28;20033;-74
2022/08/06 09:33:10;;;;;;;3.90;0.30;;;19.70;66.70;;;;;;5072814;28;20029;-74
2022/08/06 09:35:36;;;;;;;1.20;0.25;;;19.90;66.50;;;;;;5051244;28;20040;-74
2022/08/06 09:38:09;;;;;;;1.17;0.20;;;20.00;66.00;;;;;;5078094;28;20028;-74
2022/08/06 09:40:34;;;;;;;1.33;0.30;;;20.10;65.30;;;;;;5049951;28;20025;-74
2022/08/06 09:43:01;;;;;;;2.92;0.40;;;20.20;65.00;;;;;;5046594;28;20039;-74
2022/08/06 09:45:28;;;;;;;1.77;0.30;;;20.30;65.20;;;;;;5052478;28;20033;-74
2022/08/06 09:48:03;;;;;;;0.93;0.20;;;20.50;64.00;;;;;;5054536;28;20112;-74
2022/08/06 09:50:43;;;;;;;2.38;0.30;;;20.60;63.40;;;;;;5056196;28;20028;-76
2022/08/06 09:53:09;;;;;;;4.50;0.40;;;20.70;62.40;;;;;;5055903;28;20076;-77
2022/08/06 09:55:35;;;;;;;3.13;0.30;;;20.80;62.40;;;;;;5038074;28;20017;-74
2022/08/06 09:58:01;;;;;;;1.27;0.20;;;20.80;61.50;;;;;;5037986;28;20029;-76
2022/08/06 10:00:31;;;;;;;2.13;0.40;;;20.70;61.20;;;;;;5055880;28;20025;-75
2022/08/06 10:02:59;;;;;;;3.17;0.30;;;20.60;61.30;;;;;;5054738;28;20029;-76
2022/08/06 10:05:26;;;;;;;2.40;0.50;;;20.60;60.50;;;;;;5054576;28;20546;-75
2022/08/06 10:08:13;;;;;;;1.60;0.30;;;20.60;60.40;;;;;;5054320;28;20079;-76
2022/08/06 10:10:43;;;;;;;2.50;0.22;;;20.70;59.40;;;;;;5054308;28;20029;-76
2022/08/06 10:13:11;;;;;;;1.73;0.30;;;20.80;59.30;;;;;;5055375;28;20037;-74
2022/08/06 10:15:37;;;;;;;0.93;0.20;;;20.80;59.00;;;;;;5066065;28;20028;-74
2022/08/06 10:18:02;;;;;;;1.55;0.25;;;20.90;58.20;;;;;;5054630;28;20342;-74
2022/08/06 10:20:28;;;;;;;1.30;0.20;;;20.90;57.40;;;;;;5075372;28;20032;-74
2022/08/06 10:22:56;;;;;;;0.77;0.20;;;21.00;57.30;;;;;;5074551;28;20033;-73
2022/08/06 10:25:23;;;;;;;2.47;0.25;;;21.00;56.80;;;;;;5057072;28;20102;-74
2022/08/06 10:27:51;;;;;;;2.10;0.40;;;21.00;56.70;;;;;;5075088;28;20484;-74
2022/08/06 10:30:17;;;;;;;0.60;0.20;;;21.10;56.60;;;;;;5074918;28;20107;-74
2022/08/06 10:32:55;;;;;;;1.30;0.25;;;21.40;56.40;;;;;;5075081;28;20524;-75
2022/08/06 10:35:22;;;;;;;1.58;0.35;;;21.80;56.30;;;;;;5055750;28;20036;-74
2022/08/06 10:38:12;;;;;;;3.30;0.30;;;22.10;55.50;;;;;;5075102;28;20028;-75
2022/08/06 10:40:39;;;;;;;0.80;0.20;;;22.50;54.70;;;;;;5073785;28;20024;-74
2022/08/06 10:43:06;;;;;;;2.15;0.20;;;22.60;55.00;;;;;;5075007;28;20021;-75
2022/08/06 10:45:33;;;;;;;1.13;0.20;;;22.70;54.80;;;;;;5075425;28;20024;-75
2022/08/06 10:47:59;;;;;;;0.45;0.10;;;22.70;54.50;;;;;;5074835;28;20418;-74
2022/08/06 10:50:25;;;;;;;1.13;0.20;;;22.70;54.40;;;;;;5074802;28;20024;-75
2022/08/06 10:52:52;;;;;;;1.85;0.20;;;22.70;54.30;;;;;;5056812;28;20484;-75
2022/08/06 10:55:18;;;;;;;0.32;0.10;;;22.80;54.30;;;;;;5074245;28;20128;-75
2022/08/06 10:57:44;;;;;;;3.17;0.32;;;22.90;54.40;;;;;;5056859;28;20489;-74
2022/08/06 11:00:10;;;;;;;1.10;0.20;;;23.10;54.50;;;;;;5040625;28;20024;-75
2022/08/06 11:03:30;;;;;;;2.20;0.20;;;23.30;54.30;;;;;;5074371;28;20043;-75
2022/08/06 11:06:08;;;;;;;3.08;0.38;;;23.30;53.70;;;;;;5035947;28;20025;-75
2022/08/06 11:08:51;;;;;;;1.73;0.20;;;23.40;54.00;;;;;;5057915;28;20032;-75
2022/08/06 11:11:44;;;;;;;0.87;0.10;;;23.30;53.80;;;;;;5074530;28;20058;-75
2022/08/06 11:14:10;;;;;;;0.60;0.20;;;23.30;53.50;;;;;;5088920;28;20477;-75
2022/08/06 11:16:38;;;;;;;0.35;0.13;;;23.20;53.20;;;;;;5049139;28;20052;-75
2022/08/06 11:19:09;;;;;;;2.38;0.30;;;23.20;53.10;;;;;;5054074;28;20028;-76
2022/08/06 11:21:44;;;;;;;1.35;0.17;;;23.20;53.20;;;;;;5053906;28;20025;-75
2022/08/06 11:24:11;;;;;;;1.45;0.20;;;23.30;53.40;;;;;;5052906;28;20023;-76
2022/08/06 11:26:40;;;;;;;1.85;0.20;;;23.50;53.60;;;;;;5052596;28;20043;-76
2022/08/06 11:29:07;;;;;;;1.20;0.20;;;23.70;53.60;;;;;;5053959;28;20017;-76
2022/08/06 11:31:34;;;;;;;0.75;0.10;;;24.00;53.30;;;;;;5053956;28;20025;-75
2022/08/06 11:34:04;;;;;;;1.02;0.20;;;24.30;53.20;;;;;;5053851;28;20029;-75
2022/08/06 11:36:46;;;;;;;1.58;0.30;;;24.50;52.80;;;;;;5053787;28;20013;-75
2022/08/06 11:39:12;;;;;;;2.10;0.20;;;24.70;52.20;;;;;;5053789;28;20428;-75
2022/08/06 11:41:53;;;;;;;0.85;0.20;;;24.80;52.30;;;;;;5053959;28;20040;-74
2022/08/06 11:44:20;;;;;;;1.48;0.30;;;24.80;51.40;;;;;;5053924;28;20104;-75
2022/08/06 11:46:47;;;;;;;1.20;0.10;;;24.80;51.20;;;;;;5052459;28;20035;-75
2022/08/06 11:49:44;;;;;;;1.10;0.20;;;24.70;50.70;;;;;;5035771;28;20036;-75
2022/08/06 11:52:30;;;;;;;1.02;0.20;;;24.70;50.20;;;;;;5034870;28;20123;-75
2022/08/06 11:55:06;;;;;;;0.90;0.20;;;24.60;50.20;;;;;;5038500;28;20029;-75
2022/08/06 11:57:33;;;;;;;4.72;0.40;;;24.50;50.20;;;;;;5053622;28;20520;-75
2022/08/06 11:59:58;;;;;;;1.05;0.32;;;24.50;50.00;;;;;;5053492;28;20392;-76
2022/08/06 12:02:42;;;;;;;1.38;0.20;;;24.50;49.80;;;;;;5079391;28;20036;-75
2022/08/06 12:05:27;;;;;;;;;;;24.40;49.30;;;;;;5070010;28;20077;-75
2022/08/06 12:08:20;;;;;;;1.15;0.20;;;24.40;49.60;;;;;;5072962;28;19923;-75
2022/08/06 12:11:24;;;;;;;1.77;0.20;;;24.40;49.60;;;;;;5073112;28;20037;-75
2022/08/06 12:13:50;;;;;;;0.60;0.20;;;24.30;50.00;;;;;;5073364;28;20025;-75
2022/08/06 12:16:32;;;;;;;0.88;0.20;;;24.30;50.40;;;;;;5055599;28;20040;-75
2022/08/06 12:18:59;;;;;;;0.50;0.10;;;24.20;50.10;;;;;;5073256;28;20020;-76
2022/08/06 12:21:25;;;;;;;0.57;0.10;;;24.30;50.10;;;;;;5055236;28;20029;-76
2022/08/06 12:23:52;;;;;;;0.90;0.20;;;24.30;49.60;;;;;;5073296;28;20036;-76
2022/08/06 12:26:19;;;;;;;0.75;0.17;;;24.40;49.20;;;;;;5055370;28;20025;-76
2022/08/06 12:28:46;;;;;;;0.35;0.10;;;24.60;48.90;;;;;;5055134;28;20029;-76
2022/08/06 12:31:12;;;;;;;0.95;0.30;;;25.00;49.20;;;;;;5073154;28;20461;-76
2022/08/06 12:33:41;;;;;;;0.82;0.22;;;25.20;49.20;;;;;;5054978;28;20031;-76
2022/08/06 12:36:07;;;;;;;2.47;0.20;;;25.60;48.60;;;;;;5073038;28;20082;-76
2022/08/06 12:38:34;;;;;;;0.98;0.20;;;25.80;48.40;;;;;;5055137;28;20025;-76
2022/08/06 12:41:01;;;;;;;1.80;0.20;;;25.90;48.40;;;;;;5055055;28;20108;-75
2022/08/06 12:43:28;;;;;;;1.17;0.20;;;25.90;48.60;;;;;;5073005;28;20090;-76
2022/08/06 12:46:00;;;;;;;1.42;0.20;;;25.90;49.00;;;;;;5054964;28;20032;-76
2022/08/06 12:48:26;;;;;;;1.02;0.13;;;25.80;48.40;;;;;;5055528;28;20206;-76
2022/08/06 12:51:13;;;;;;;0.98;0.10;;;25.70;48.40;;;;;;5054964;28;20024;-76
2022/08/06 12:54:04;;;;;;;0.57;0.20;;;25.70;48.70;;;;;;5072756;28;20035;-76
2022/08/06 12:56:33;;;;;;;2.40;0.22;;;25.60;49.40;;;;;;5060123;28;20111;-77
2022/08/06 12:59:02;;;;;;;1.70;0.20;;;25.60;49.20;;;;;;5072557;28;20020;-76
2022/08/06 13:01:30;;;;;;;0.70;0.17;;;25.90;49.20;;;;;;5072326;28;20027;-76
2022/08/06 13:03:58;;;;;;;1.52;0.20;;;26.30;48.80;;;;;;5062380;28;20095;-76
2022/08/06 13:06:26;;;;;;;0.98;0.10;;;26.70;48.00;;;;;;5072302;28;20025;-76
2022/08/06 13:08:53;;;;;;;0.77;0.20;;;26.90;47.30;;;;;;5062591;28;20063;-74